createdAt,value
2023-05-08T00:01:28.017Z,2.73
2023-05-08T00:03:57.197Z,2.50
2023-05-08T00:06:27.706Z,2.50
2023-05-08T00:08:56.790Z,2.60
2023-05-08T00:11:27.540Z,3.20
2023-05-08T00:13:56.810Z,2.33
2023-05-08T00:16:26.166Z,2.60
2023-05-08T00:18:55.105Z,3.00
2023-05-08T00:21:24.816Z,2.80
2023-05-08T00:23:54.221Z,2.70
2023-05-08T00:26:23.332Z,2.50
2023-05-08T00:28:54.127Z,2.70
2023-05-08T00:31:24.304Z,2.90
2023-05-08T00:33:53.665Z,2.70
2023-05-08T00:36:22.931Z,3.13
2023-05-08T00:38:51.882Z,2.63
2023-05-08T00:41:21.078Z,2.50
2023-05-08T00:43:50.300Z,2.83
2023-05-08T00:46:20.631Z,2.90
2023-05-08T00:48:49.973Z,2.63
2023-05-08T00:51:19.630Z,2.33
2023-05-08T00:53:48.617Z,2.47
2023-05-08T00:56:20.455Z,2.93
2023-05-08T00:58:50.046Z,2.63
2023-05-08T01:01:20.424Z,2.70
2023-05-08T01:03:49.842Z,2.57
2023-05-08T01:06:19.066Z,3.60
2023-05-08T01:08:48.127Z,2.47
2023-05-08T01:11:23.925Z,3.00
2023-05-08T01:13:59.524Z,2.70
2023-05-08T01:16:39.212Z,3.03
2023-05-08T01:19:23.177Z,2.33
2023-05-08T01:21:58.558Z,2.33
2023-05-08T01:24:59.242Z,2.10
2023-05-08T01:28:04.290Z,1.80
2023-05-08T01:30:50.890Z,1.90
2023-05-08T01:33:28.888Z,2.20
2023-05-08T01:36:01.425Z,2.10
2023-05-08T01:38:36.048Z,1.90
2023-05-08T01:41:10.712Z,2.00
2023-05-08T01:43:47.472Z,1.90
2023-05-08T01:46:20.919Z,1.90
2023-05-08T01:49:00.407Z,2.93
2023-05-08T01:51:34.839Z,2.10
2023-05-08T01:54:10.578Z,1.80
2023-05-08T01:56:41.619Z,2.20
2023-05-08T01:59:15.316Z,1.73
2023-05-08T02:01:47.479Z,2.13
2023-05-08T02:04:19.859Z,1.80
2023-05-08T02:06:49.051Z,2.50
2023-05-08T02:09:20.010Z,2.30
2023-05-08T02:11:51.557Z,3.17
2023-05-08T02:14:22.289Z,3.30
2023-05-08T02:16:56.366Z,2.97
2023-05-08T02:19:29.834Z,3.07
2023-05-08T02:22:00.238Z,3.23
2023-05-08T02:24:29.572Z,3.10
2023-05-08T02:27:00.396Z,2.70
2023-05-08T02:29:31.702Z,3.40
2023-05-08T02:32:03.858Z,2.97
2023-05-08T02:34:35.342Z,3.27
2023-05-08T02:37:05.432Z,3.17
2023-05-08T02:39:36.934Z,3.53
2023-05-08T02:42:06.365Z,3.40
2023-05-08T02:44:35.374Z,3.40
2023-05-08T02:47:20.399Z,3.47
2023-05-08T02:49:56.227Z,3.20
2023-05-08T02:52:30.324Z,3.50
2023-05-08T02:55:03.538Z,3.13
2023-05-08T02:57:41.185Z,3.53
2023-05-08T03:00:20.591Z,3.13
2023-05-08T03:02:54.732Z,3.93
2023-05-08T03:05:30.908Z,3.23
2023-05-08T03:08:05.264Z,3.73
2023-05-08T03:10:37.848Z,3.53
2023-05-08T03:13:09.633Z,3.00
2023-05-08T03:15:51.948Z,3.27
2023-05-08T03:18:26.936Z,3.17
2023-05-08T03:21:00.830Z,3.10
2023-05-08T03:23:32.206Z,3.20
2023-05-08T03:26:04.529Z,2.87
2023-05-08T03:28:37.117Z,3.17
2023-05-08T03:31:07.587Z,2.87
2023-05-08T03:33:40.212Z,3.17
2023-05-08T03:36:11.493Z,3.17
2023-05-08T03:38:41.069Z,3.40
2023-05-08T03:41:10.143Z,2.83
2023-05-08T03:43:39.571Z,2.73
2023-05-08T03:46:09.684Z,2.50
2023-05-08T03:48:39.908Z,2.60
2023-05-08T03:51:11.332Z,2.87
2023-05-08T03:53:41.098Z,2.90
2023-05-08T03:56:10.197Z,2.67
2023-05-08T03:58:45.974Z,2.63
2023-05-08T04:01:41.882Z,2.70
2023-05-08T04:04:19.938Z,2.33
2023-05-08T04:06:55.834Z,2.63
2023-05-08T04:09:38.877Z,2.20
2023-05-08T04:12:16.301Z,2.90
2023-05-08T04:14:49.918Z,3.03
2023-05-08T04:17:24.840Z,2.90
2023-05-08T04:20:01.801Z,3.00
2023-05-08T04:22:33.822Z,3.03
2023-05-08T04:25:07.232Z,2.60
2023-05-08T04:27:37.106Z,2.73
2023-05-08T04:30:07.621Z,2.97
2023-05-08T04:32:40.271Z,2.67
2023-05-08T04:35:11.544Z,2.80
2023-05-08T04:37:43.447Z,4.80
2023-05-08T04:40:13.777Z,4.20
2023-05-08T04:42:47.444Z,4.43
2023-05-08T04:45:19.507Z,4.30
2023-05-08T04:47:48.799Z,4.53
2023-05-08T04:50:18.207Z,4.40
2023-05-08T04:52:48.937Z,4.03
2023-05-08T04:55:18.253Z,4.40
2023-05-08T04:57:48.746Z,3.97
2023-05-08T05:00:19.022Z,5.23
2023-05-08T05:02:48.981Z,5.20
2023-05-08T05:05:18.105Z,4.00
2023-05-08T05:07:49.027Z,4.40
2023-05-08T05:10:19.152Z,4.93
2023-05-08T05:12:48.665Z,4.13
2023-05-08T05:15:17.784Z,4.57
2023-05-08T05:17:47.008Z,5.13
2023-05-08T05:20:16.600Z,5.67
2023-05-08T05:22:48.157Z,7.77
2023-05-08T05:25:17.181Z,7.80
2023-05-08T05:27:46.991Z,5.40
2023-05-08T05:30:17.724Z,4.87
2023-05-08T05:32:47.200Z,5.07
2023-05-08T05:35:16.273Z,5.50
2023-05-08T05:37:45.735Z,5.47
2023-05-08T05:40:16.664Z,6.17
2023-05-08T05:42:51.193Z,5.00
2023-05-08T05:45:21.667Z,4.87
2023-05-08T05:47:54.480Z,5.57
2023-05-08T05:50:27.339Z,5.23
2023-05-08T05:52:58.178Z,5.70
2023-05-08T05:55:30.016Z,6.10
2023-05-08T05:58:00.394Z,5.90
2023-05-08T06:00:30.898Z,5.50
2023-05-08T06:03:02.614Z,5.40
2023-05-08T06:05:32.910Z,6.20
2023-05-08T06:08:01.954Z,5.73
2023-05-08T06:10:33.086Z,4.70
2023-05-08T06:13:02.483Z,4.53
2023-05-08T06:15:31.747Z,5.67
2023-05-08T06:18:01.036Z,5.20
2023-05-08T06:20:30.907Z,7.73
2023-05-08T06:23:00.002Z,12.13
2023-05-08T06:25:29.535Z,6.70
2023-05-08T06:28:00.065Z,5.47
2023-05-08T06:30:29.444Z,5.40
2023-05-08T06:32:58.455Z,6.00
2023-05-08T06:35:27.977Z,5.37
2023-05-08T06:37:57.391Z,5.07
2023-05-08T06:40:26.560Z,5.03
2023-05-08T06:42:55.625Z,8.83
2023-05-08T06:45:26.281Z,3.73
2023-05-08T06:47:55.237Z,3.07
2023-05-08T06:50:24.722Z,4.93
2023-05-08T06:52:53.963Z,2.90
2023-05-08T06:55:23.224Z,2.50
2023-05-08T06:57:52.245Z,3.40
2023-05-08T07:00:21.862Z,3.90
2023-05-08T07:02:53.154Z,3.60
2023-05-08T07:05:22.646Z,3.40
2023-05-08T07:07:54.235Z,2.57
2023-05-08T07:10:23.989Z,2.60
2023-05-08T07:12:53.147Z,4.43
2023-05-08T07:15:26.466Z,4.87
2023-05-08T07:17:57.798Z,4.10
2023-05-08T07:20:28.272Z,4.20
2023-05-08T07:22:57.424Z,4.97
2023-05-08T07:25:26.938Z,5.30
2023-05-08T07:27:56.245Z,6.10
2023-05-08T07:30:25.276Z,5.50
2023-05-08T07:32:54.664Z,3.80
2023-05-08T07:35:25.326Z,3.33
2023-05-08T07:37:54.615Z,3.83
2023-05-08T07:40:23.908Z,3.13
2023-05-08T07:42:53.325Z,2.70
2023-05-08T07:45:22.775Z,2.67
2023-05-08T07:47:53.181Z,2.60
2023-05-08T07:50:23.517Z,3.77
2023-05-08T07:52:54.292Z,4.53
2023-05-08T07:55:23.485Z,2.70
2023-05-08T07:57:52.834Z,2.57
2023-05-08T08:00:22.291Z,8.23
2023-05-08T08:02:51.420Z,2.60
2023-05-08T08:05:20.891Z,2.67
2023-05-08T08:07:50.049Z,3.00
2023-05-08T08:10:20.878Z,2.40
2023-05-08T08:12:50.302Z,2.33
2023-05-08T08:15:19.542Z,2.87
2023-05-08T08:17:49.133Z,3.20
2023-05-08T08:20:18.758Z,3.97
2023-05-08T08:22:47.577Z,3.13
2023-05-08T08:25:16.619Z,4.40
2023-05-08T08:27:47.116Z,2.70
2023-05-08T08:30:18.038Z,4.00
2023-05-08T08:32:48.185Z,3.00
2023-05-08T08:35:18.193Z,3.83
2023-05-08T08:37:47.422Z,3.47
2023-05-08T08:40:17.276Z,5.13
2023-05-08T08:42:47.908Z,3.40
2023-05-08T08:45:17.299Z,3.20
2023-05-08T08:47:49.742Z,3.13
2023-05-08T08:50:22.279Z,3.90
2023-05-08T08:53:02.097Z,3.50
2023-05-08T08:55:32.719Z,2.60
2023-05-08T08:58:15.827Z,3.67
2023-05-08T09:00:47.700Z,3.80
2023-05-08T09:03:17.420Z,6.23
2023-05-08T09:05:47.189Z,6.80
2023-05-08T09:08:16.399Z,7.10
2023-05-08T09:10:45.586Z,7.50
2023-05-08T09:13:17.440Z,8.40
2023-05-08T09:15:49.295Z,9.60
2023-05-08T09:18:19.530Z,7.97
2023-05-08T09:20:49.252Z,7.23
2023-05-08T09:23:18.886Z,7.40
2023-05-08T09:25:50.662Z,6.07
2023-05-08T09:28:22.689Z,5.80
2023-05-08T09:30:55.952Z,6.67
2023-05-08T09:33:28.354Z,6.83
2023-05-08T09:35:58.668Z,7.03
2023-05-08T09:38:38.136Z,6.23
2023-05-08T09:41:15.961Z,5.83
2023-05-08T09:44:01.222Z,6.23
2023-05-08T09:46:30.609Z,7.03
2023-05-08T09:49:00.938Z,7.17
2023-05-08T09:51:32.193Z,6.50
2023-05-08T09:54:05.907Z,5.90
2023-05-08T09:56:36.419Z,5.47
2023-05-08T09:59:24.657Z,5.73
2023-05-08T10:01:56.214Z,5.70
2023-05-08T10:04:35.417Z,6.50
2023-05-08T10:07:05.004Z,6.33
2023-05-08T10:09:47.036Z,5.93
2023-05-08T10:12:19.677Z,7.40
2023-05-08T10:14:50.477Z,7.43
2023-05-08T10:17:24.851Z,6.87
2023-05-08T10:20:00.335Z,5.67
2023-05-08T10:22:31.361Z,5.50
2023-05-08T10:25:02.364Z,6.60
2023-05-08T10:27:42.867Z,5.90
2023-05-08T10:30:18.312Z,6.67
2023-05-08T10:32:52.425Z,6.03
2023-05-08T10:35:21.797Z,7.80
2023-05-08T10:37:51.889Z,5.50
2023-05-08T10:40:22.192Z,5.23
2023-05-08T10:42:53.008Z,6.10
2023-05-08T10:45:23.895Z,6.03
2023-05-08T10:48:01.267Z,5.53
2023-05-08T10:50:44.247Z,6.80
2023-05-08T10:53:18.875Z,5.90
2023-05-08T10:55:52.351Z,5.57
2023-05-08T10:58:32.699Z,5.83
2023-05-08T11:01:28.503Z,6.40
2023-05-08T11:03:58.464Z,5.77
2023-05-08T11:06:49.456Z,6.20
2023-05-08T11:09:23.299Z,5.93
2023-05-08T11:12:05.424Z,6.53
2023-05-08T11:14:37.805Z,6.90
2023-05-08T11:17:10.094Z,7.70
2023-05-08T11:19:40.132Z,6.67
2023-05-08T11:22:24.893Z,6.00
2023-05-08T11:25:05.432Z,6.07
2023-05-08T11:27:57.127Z,5.13
2023-05-08T11:30:37.545Z,5.27
2023-05-08T11:33:18.495Z,5.93
2023-05-08T11:35:57.235Z,5.00
2023-05-08T11:38:36.238Z,4.87
2023-05-08T11:41:07.516Z,7.13
2023-05-08T11:44:15.456Z,4.63
2023-05-08T11:46:50.170Z,6.63
2023-05-08T11:49:26.019Z,7.00
2023-05-08T11:52:00.463Z,7.97
2023-05-08T11:54:32.481Z,7.70
2023-05-08T11:57:02.607Z,8.53
2023-05-08T11:59:37.927Z,9.13
2023-05-08T12:02:09.571Z,7.93
2023-05-08T12:04:48.855Z,9.37
2023-05-08T12:07:18.806Z,6.97
2023-05-08T12:09:49.062Z,7.80
2023-05-08T12:12:18.155Z,6.50
2023-05-08T12:14:51.541Z,6.47
2023-05-08T12:17:20.912Z,6.47
2023-05-08T12:19:56.644Z,6.37
2023-05-08T12:22:25.897Z,5.80
2023-05-08T12:24:54.846Z,4.97
2023-05-08T12:27:26.111Z,5.03
2023-05-08T12:29:55.478Z,4.63
2023-05-08T12:32:25.487Z,4.70
2023-05-08T12:34:57.057Z,6.10
2023-05-08T12:37:28.322Z,4.30
2023-05-08T12:39:57.712Z,4.93
2023-05-08T12:42:44.784Z,6.07
2023-05-08T12:45:20.621Z,5.40
2023-05-08T12:47:50.159Z,4.10
2023-05-08T12:50:22.649Z,4.67
2023-05-08T12:52:52.103Z,3.10
2023-05-08T12:55:25.889Z,5.00
2023-05-08T12:58:01.928Z,3.80
2023-05-08T13:00:38.498Z,3.90
2023-05-08T13:03:08.411Z,2.97
2023-05-08T13:05:42.797Z,4.83
2023-05-08T13:08:12.573Z,5.37
2023-05-08T13:10:52.194Z,5.40
2023-05-08T13:13:22.891Z,4.20
2023-05-08T13:15:54.238Z,4.27
2023-05-08T13:18:26.213Z,5.27
2023-05-08T13:20:57.491Z,3.60
2023-05-08T13:23:26.983Z,3.87
2023-05-08T13:25:57.056Z,3.93
2023-05-08T13:28:26.227Z,3.40
2023-05-08T13:30:55.296Z,7.40
2023-05-08T13:33:24.702Z,4.00
2023-05-08T13:35:54.054Z,4.23
2023-05-08T13:38:24.872Z,3.83
2023-05-08T13:40:54.076Z,5.00
2023-05-08T13:43:23.460Z,3.10
2023-05-08T13:45:53.003Z,3.73
2023-05-08T13:48:22.252Z,4.70
2023-05-08T13:50:51.468Z,5.27
2023-05-08T13:53:20.731Z,5.60
2023-05-08T13:55:51.207Z,3.83
2023-05-08T13:58:20.171Z,4.00
2023-05-08T14:00:50.387Z,3.80
2023-05-08T14:03:19.648Z,3.90
2023-05-08T14:05:48.534Z,3.80
2023-05-08T14:08:17.861Z,4.03
2023-05-08T14:10:46.752Z,3.73
2023-05-08T14:13:18.026Z,5.40
2023-05-08T14:15:47.212Z,3.87
2023-05-08T14:18:16.081Z,4.70
2023-05-08T14:20:48.991Z,5.47
2023-05-08T14:23:20.909Z,4.40
2023-05-08T14:25:49.769Z,4.60
2023-05-08T14:28:21.812Z,4.40
2023-05-08T14:30:50.706Z,5.33
2023-05-08T14:33:19.727Z,5.63
2023-05-08T14:35:49.064Z,5.20
2023-05-08T14:38:18.129Z,8.63
2023-05-08T14:40:47.293Z,3.87
2023-05-08T14:43:16.627Z,5.10
2023-05-08T14:45:47.683Z,4.27
2023-05-08T14:48:16.890Z,5.40
2023-05-08T14:50:45.939Z,4.90
2023-05-08T14:53:15.350Z,4.07
2023-05-08T14:55:45.127Z,5.33
2023-05-08T14:58:14.828Z,6.60
2023-05-08T15:00:43.913Z,5.40
2023-05-08T15:03:14.780Z,4.13
2023-05-08T15:05:44.352Z,4.60
2023-05-08T15:08:13.774Z,4.60
2023-05-08T15:10:42.828Z,5.23
2023-05-08T15:13:11.929Z,5.30
2023-05-08T15:15:41.234Z,5.00
2023-05-08T15:18:10.357Z,4.70
2023-05-08T15:20:40.733Z,5.73
2023-05-08T15:23:10.297Z,4.20
2023-05-08T15:25:39.354Z,4.60
2023-05-08T15:28:08.432Z,4.20
2023-05-08T15:30:37.582Z,5.43
2023-05-08T15:33:06.654Z,4.40
2023-05-08T15:35:35.938Z,4.47
2023-05-08T15:38:07.874Z,4.00
2023-05-08T15:40:36.899Z,3.57
2023-05-08T15:43:05.859Z,4.10
2023-05-08T15:45:35.414Z,4.90
2023-05-08T15:48:04.435Z,5.00
2023-05-08T15:50:33.690Z,4.43
2023-05-08T15:53:03.273Z,5.07
2023-05-08T15:55:34.350Z,4.20
2023-05-08T15:58:03.836Z,5.50
2023-05-08T16:00:43.986Z,4.43
2023-05-08T16:03:14.923Z,4.20
2023-05-08T16:05:44.694Z,3.67
2023-05-08T16:08:13.987Z,4.30
2023-05-08T16:10:45.164Z,13.93
2023-05-08T16:13:14.729Z,3.70
2023-05-08T16:15:43.951Z,3.80
2023-05-08T16:18:13.054Z,3.90
2023-05-08T16:20:43.833Z,3.80
2023-05-08T16:23:14.618Z,4.00
2023-05-08T16:25:45.119Z,4.50
2023-05-08T16:28:14.351Z,4.60
2023-05-08T16:30:43.549Z,4.20
2023-05-08T16:33:13.470Z,3.50
2023-05-08T16:35:42.572Z,4.07
2023-05-08T16:38:12.014Z,3.07
2023-05-08T16:40:42.020Z,3.87
2023-05-08T16:43:12.474Z,5.00
2023-05-08T16:45:42.677Z,4.83
2023-05-08T16:48:12.073Z,5.10
2023-05-08T16:50:41.228Z,5.97
2023-05-08T16:53:10.566Z,4.90
2023-05-08T16:55:39.407Z,3.80
2023-05-08T16:58:08.675Z,6.87
2023-05-08T17:00:39.655Z,4.40
2023-05-08T17:03:09.526Z,3.83
2023-05-08T17:05:39.226Z,3.70
2023-05-08T17:08:08.621Z,5.23
2023-05-08T17:10:37.721Z,4.67
2023-05-08T17:13:06.987Z,4.47
2023-05-08T17:15:36.126Z,3.50
2023-05-08T17:18:07.003Z,3.80
2023-05-08T17:20:41.258Z,3.67
2023-05-08T17:23:10.870Z,3.80
2023-05-08T17:25:39.864Z,3.90
2023-05-08T17:28:09.234Z,4.67
2023-05-08T17:30:38.168Z,3.60
2023-05-08T17:33:08.971Z,3.50
2023-05-08T17:35:38.436Z,3.43
2023-05-08T17:38:07.249Z,4.20
2023-05-08T17:40:36.936Z,3.20
2023-05-08T17:43:06.016Z,3.73
2023-05-08T17:45:35.502Z,4.17
2023-05-08T17:48:04.734Z,3.97
2023-05-08T17:50:35.621Z,3.70
2023-05-08T17:53:04.743Z,3.13
2023-05-08T17:55:34.782Z,3.80
2023-05-08T17:58:04.053Z,4.70
2023-05-08T18:00:33.832Z,17.23
2023-05-08T18:03:03.291Z,3.97
2023-05-08T18:05:32.648Z,3.37
2023-05-08T18:08:03.078Z,3.70
2023-05-08T18:10:33.112Z,3.57
2023-05-08T18:13:02.241Z,3.50
2023-05-08T18:15:31.443Z,4.37
2023-05-08T18:18:00.383Z,4.87
2023-05-08T18:20:29.687Z,4.70
2023-05-08T18:22:58.872Z,3.30
2023-05-08T18:25:29.578Z,3.77
2023-05-08T18:27:59.095Z,3.60
2023-05-08T18:30:28.058Z,3.40
2023-05-08T18:32:57.342Z,4.10
2023-05-08T18:35:26.548Z,4.40
2023-05-08T18:37:55.876Z,5.30
2023-05-08T18:40:24.921Z,4.70
2023-05-08T18:42:55.516Z,4.60
2023-05-08T18:45:24.507Z,4.40
2023-05-08T18:47:54.360Z,5.40
2023-05-08T18:50:23.706Z,5.90
2023-05-08T18:52:53.436Z,7.40
2023-05-08T18:55:23.164Z,8.27
2023-05-08T18:57:52.638Z,5.63
2023-05-08T19:00:23.340Z,4.97
2023-05-08T19:02:52.382Z,3.90
2023-05-08T19:05:21.787Z,4.07
2023-05-08T19:07:50.894Z,4.50
2023-05-08T19:10:19.704Z,4.10
2023-05-08T19:12:50.770Z,6.60
2023-05-08T19:15:19.954Z,4.20
2023-05-08T19:17:53.159Z,4.30
2023-05-08T19:20:22.704Z,4.57
2023-05-08T19:22:51.687Z,5.20
2023-05-08T19:25:21.186Z,5.57
2023-05-08T19:27:50.594Z,5.47
2023-05-08T19:30:19.784Z,5.40
2023-05-08T19:32:51.650Z,5.90
2023-05-08T19:35:21.321Z,5.03
2023-05-08T19:37:50.298Z,5.77
2023-05-08T19:40:19.989Z,6.90
2023-05-08T19:42:48.999Z,5.30
2023-05-08T19:45:18.096Z,6.37
2023-05-08T19:47:50.792Z,4.70
2023-05-08T19:50:19.967Z,5.50
2023-05-08T19:52:49.278Z,6.13
2023-05-08T19:55:19.488Z,5.03
2023-05-08T19:57:48.487Z,9.30
2023-05-08T20:00:18.175Z,5.53
2023-05-08T20:02:47.287Z,5.50
2023-05-08T20:05:22.577Z,8.60
2023-05-08T20:07:52.811Z,6.20
2023-05-08T20:10:21.983Z,4.30
2023-05-08T20:12:51.268Z,5.90
2023-05-08T20:15:20.825Z,6.87
2023-05-08T20:17:49.924Z,8.30
2023-05-08T20:20:20.524Z,8.67
2023-05-08T20:22:49.668Z,6.70
2023-05-08T20:25:18.770Z,6.47
2023-05-08T20:27:47.674Z,8.07
2023-05-08T20:30:17.090Z,5.30
2023-05-08T20:32:46.098Z,6.30
2023-05-08T20:35:15.816Z,5.17
2023-05-08T20:37:47.474Z,4.73
2023-05-08T20:40:16.848Z,4.80
2023-05-08T20:42:46.267Z,5.23
2023-05-08T20:45:15.634Z,4.70
2023-05-08T20:47:44.662Z,4.37
2023-05-08T20:50:16.314Z,6.63
2023-05-08T20:52:47.214Z,5.30
2023-05-08T20:55:16.614Z,5.20
2023-05-08T20:57:45.648Z,5.90
2023-05-08T21:00:15.650Z,4.70
2023-05-08T21:02:44.849Z,6.60
2023-05-08T21:05:14.302Z,6.10
2023-05-08T21:07:43.626Z,6.00
2023-05-08T21:10:14.580Z,4.70
2023-05-08T21:12:45.779Z,5.03
2023-05-08T21:15:15.225Z,5.00
2023-05-08T21:17:44.481Z,7.90
2023-05-08T21:20:14.846Z,6.30
2023-05-08T21:22:46.326Z,5.93
2023-05-08T21:25:20.538Z,4.23
2023-05-08T21:27:53.304Z,6.03
2023-05-08T21:30:23.787Z,5.23
2023-05-08T21:32:52.880Z,5.77
2023-05-08T21:35:22.314Z,5.13
2023-05-08T21:37:54.670Z,6.33
2023-05-08T21:40:25.301Z,5.70
2023-05-08T21:42:54.609Z,5.20
2023-05-08T21:45:23.554Z,4.90
2023-05-08T21:47:52.975Z,5.00
2023-05-08T21:50:22.011Z,4.80
2023-05-08T21:52:51.245Z,4.60
2023-05-08T21:55:20.464Z,5.77
2023-05-08T21:57:51.129Z,5.60
2023-05-08T22:00:21.161Z,5.43
2023-05-08T22:02:50.198Z,4.67
2023-05-08T22:05:19.504Z,4.60
2023-05-08T22:07:48.432Z,5.03
2023-05-08T22:10:18.076Z,4.43
2023-05-08T22:12:47.378Z,5.03
2023-05-08T22:15:29.153Z,3.50
2023-05-08T22:17:59.949Z,4.50
2023-05-08T22:20:29.173Z,4.63
2023-05-08T22:22:58.151Z,3.60
2023-05-08T22:25:27.502Z,3.83
2023-05-08T22:27:56.439Z,4.40
2023-05-08T22:30:26.956Z,4.50
2023-05-08T22:32:58.899Z,4.17
2023-05-08T22:35:28.564Z,4.07
2023-05-08T22:37:58.656Z,4.17
2023-05-08T22:40:28.567Z,5.00
2023-05-08T22:42:58.917Z,4.27
2023-05-08T22:45:29.788Z,4.70
2023-05-08T22:47:58.884Z,3.67
2023-05-08T22:50:27.923Z,3.60
2023-05-08T22:52:56.818Z,2.80
2023-05-08T22:55:26.007Z,3.60
2023-05-08T22:57:55.164Z,3.83
2023-05-08T23:00:24.765Z,3.50
2023-05-08T23:02:55.150Z,4.20
2023-05-08T23:05:24.680Z,3.77
2023-05-08T23:07:53.668Z,4.30
2023-05-08T23:10:23.153Z,4.10
2023-05-08T23:12:52.290Z,4.70
2023-05-08T23:15:22.453Z,4.30
2023-05-08T23:17:51.568Z,4.10
2023-05-08T23:20:22.143Z,4.40
2023-05-08T23:22:51.107Z,4.83
2023-05-08T23:25:20.064Z,4.20
2023-05-08T23:27:49.257Z,4.97
2023-05-08T23:48:53.190Z,6.97
2023-05-08T23:51:22.878Z,7.30
2023-05-08T23:53:53.621Z,6.87
2023-05-08T23:56:23.370Z,7.70
2023-05-08T23:58:52.518Z,6.70
